Terminal Aerodrome Forecast
Issued by NWS Charleston, WV

Current Version | Previous Version | Text Only | Print | Product List | Glossary Off
Versions: 1 2 3 4 5 6 7 8 9 10 11 12 13 14 15 16 17 18 19 20

000
FTUS41 KRLX 070500
TAFPKB
TAF
KPKB 070530Z 0706/0806 00000KT P6SM SCT070
     FM070800 20005KT 6SM BR SCT090
     FM070900 20005KT 5SM BR SCT100
     FM071300 21008KT P6SM SCT130
     FM071500 22013G20KT P6SM BKN100
     FM072100 22011G17KT P6SM VCTS BKN070CB
     FM080000 22010KT 6SM SHRA BR VCTS BKN060CB
      AMD NOT SKED=

USA.gov is the U.S. government's official web portal to all federal, state and local government web resources and services.